createdAt,value
2022-08-03T00:00:20.689Z,6.40
2022-08-03T00:02:47.237Z,6.78
2022-08-03T00:05:13.750Z,6.55
2022-08-03T00:07:41.113Z,8.05
2022-08-03T00:10:07.990Z,8.30
2022-08-03T00:12:36.342Z,4.30
2022-08-03T00:15:03.457Z,6.70
2022-08-03T00:17:53.066Z,5.93
2022-08-03T00:20:21.280Z,4.47
2022-08-03T00:22:47.844Z,4.80
2022-08-03T00:25:14.373Z,5.10
2022-08-03T00:27:40.867Z,7.53
2022-08-03T00:30:08.251Z,5.97
2022-08-03T00:32:34.723Z,8.25
2022-08-03T00:35:01.167Z,4.40
2022-08-03T00:37:40.747Z,5.40
2022-08-03T00:40:10.510Z,3.55
2022-08-03T00:42:47.078Z,9.27
2022-08-03T00:45:13.625Z,3.90
2022-08-03T00:47:40.528Z,7.70
2022-08-03T00:50:07.245Z,6.10
2022-08-03T00:52:34.843Z,7.38
2022-08-03T00:55:02.604Z,4.28
2022-08-03T00:57:31.700Z,6.60
2022-08-03T01:00:00.058Z,5.43
2022-08-03T01:02:28.524Z,9.25
2022-08-03T01:04:56.125Z,8.77
2022-08-03T01:07:33.722Z,6.78
2022-08-03T01:10:10.142Z,4.97
2022-08-03T01:12:49.746Z,4.95
2022-08-03T01:15:24.904Z,8.50
2022-08-03T01:18:03.360Z,7.38
2022-08-03T01:20:34.096Z,9.07
2022-08-03T01:23:19.515Z,7.93
2022-08-03T01:26:23.525Z,4.35
2022-08-03T01:29:21.516Z,7.78
2022-08-03T01:32:58.802Z,5.97
2022-08-03T01:34:52.996Z,6.05
2022-08-03T01:37:26.429Z,4.75
2022-08-03T01:39:56.399Z,6.38
2022-08-03T01:42:24.009Z,5.43
2022-08-03T01:44:52.226Z,6.35
2022-08-03T01:47:22.435Z,7.13
2022-08-03T01:49:50.667Z,3.83
2022-08-03T01:54:48.596Z,4.20
2022-08-03T01:57:16.590Z,9.52
2022-08-03T01:59:45.147Z,5.82
2022-08-03T02:02:27.941Z,5.95
2022-08-03T02:05:01.756Z,4.13
2022-08-03T02:07:30.402Z,7.07
2022-08-03T02:09:58.444Z,6.60
2022-08-03T02:12:28.291Z,4.90
2022-08-03T02:14:56.520Z,5.32
2022-08-03T02:20:11.309Z,6.25
2022-08-03T02:22:41.009Z,6.07
2022-08-03T02:25:12.969Z,5.00
2022-08-03T02:27:56.447Z,5.97
2022-08-03T02:30:29.804Z,4.32
2022-08-03T02:32:59.328Z,9.80
2022-08-03T02:35:29.459Z,6.75
2022-08-03T02:38:02.750Z,6.15
2022-08-03T02:40:31.354Z,5.13
2022-08-03T02:43:07.559Z,12.07
2022-08-03T02:45:45.346Z,6.05
2022-08-03T02:50:39.969Z,4.67
2022-08-03T02:53:07.880Z,7.13
2022-08-03T02:55:35.787Z,5.57
2022-08-03T02:58:11.711Z,5.80
2022-08-03T03:00:39.921Z,9.75
2022-08-03T03:05:54.804Z,5.95
2022-08-03T03:08:25.963Z,5.00
2022-08-03T03:10:59.367Z,9.57
2022-08-03T03:13:28.605Z,12.23
2022-08-03T03:15:57.576Z,7.30
2022-08-03T03:18:25.358Z,7.20
2022-08-03T03:20:53.209Z,8.93
2022-08-03T03:23:22.187Z,8.43
2022-08-03T03:25:49.827Z,8.38
2022-08-03T03:28:16.907Z,6.45
2022-08-03T03:30:43.817Z,6.75
2022-08-03T03:33:10.496Z,9.10
2022-08-03T03:35:39.147Z,7.65
2022-08-03T03:38:06.768Z,9.27
2022-08-03T03:40:35.559Z,8.90
2022-08-03T03:43:02.793Z,7.13
2022-08-03T03:45:31.079Z,8.18
2022-08-03T03:50:27.408Z,10.13
2022-08-03T03:52:53.931Z,7.30
2022-08-03T03:55:20.413Z,7.75
2022-08-03T03:57:46.934Z,6.25
2022-08-03T04:00:14.844Z,9.30
2022-08-03T04:02:41.457Z,9.35
2022-08-03T04:05:27.424Z,7.00
2022-08-03T04:08:30.803Z,7.90
2022-08-03T04:11:15.524Z,8.23
2022-08-03T04:14:06.424Z,10.50
2022-08-03T04:16:38.011Z,10.95
2022-08-03T04:19:24.708Z,6.55
2022-08-03T04:21:57.133Z,8.32
2022-08-03T04:24:27.074Z,12.73
2022-08-03T04:26:55.770Z,8.20
2022-08-03T04:29:22.619Z,10.18
2022-08-03T04:31:50.636Z,11.82
2022-08-03T04:34:17.515Z,7.40
2022-08-03T04:36:58.451Z,6.25
2022-08-03T04:39:26.718Z,7.55
2022-08-03T04:44:41.090Z,9.80
2022-08-03T04:47:08.284Z,11.15
2022-08-03T04:49:36.769Z,7.45
2022-08-03T04:52:04.532Z,6.60
2022-08-03T04:54:31.266Z,7.55
2022-08-03T04:56:57.704Z,7.03
2022-08-03T04:59:24.183Z,10.02
2022-08-03T05:01:50.767Z,10.10
2022-08-03T05:04:17.273Z,5.90
2022-08-03T05:06:48.121Z,9.13
2022-08-03T05:09:49.857Z,5.88
2022-08-03T05:12:08.359Z,7.80
2022-08-03T05:14:37.664Z,11.15
2022-08-03T05:17:08.919Z,8.63
2022-08-03T05:19:35.409Z,6.68
2022-08-03T05:22:01.861Z,7.85
2022-08-03T05:24:28.350Z,10.50
2022-08-03T05:26:54.855Z,8.57
2022-08-03T05:29:21.310Z,6.40
2022-08-03T05:31:47.877Z,7.38
2022-08-03T05:34:14.369Z,9.82
2022-08-03T05:36:41.159Z,8.15
2022-08-03T05:39:07.667Z,7.47
2022-08-03T05:41:37.045Z,8.43
2022-08-03T05:44:04.380Z,7.68
2022-08-03T05:46:30.872Z,6.78
2022-08-03T05:48:57.445Z,6.03
2022-08-03T05:51:23.927Z,10.02
2022-08-03T05:53:50.509Z,8.05
2022-08-03T05:56:17.197Z,4.68
2022-08-03T05:58:45.441Z,6.00
2022-08-03T06:03:38.532Z,9.40
2022-08-03T06:06:05.080Z,12.60
2022-08-03T06:08:31.576Z,7.90
2022-08-03T06:10:58.103Z,8.13
2022-08-03T06:13:24.563Z,8.15
2022-08-03T06:15:51.033Z,8.80
2022-08-03T06:18:17.839Z,7.18
2022-08-03T06:20:44.385Z,9.88
2022-08-03T06:23:17.825Z,19.02
2022-08-03T06:25:45.216Z,7.47
2022-08-03T06:28:35.402Z,6.90
2022-08-03T06:31:00.919Z,7.25
2022-08-03T06:33:48.564Z,11.55
2022-08-03T06:36:14.008Z,8.30
2022-08-03T06:38:40.447Z,7.57
2022-08-03T06:41:06.924Z,11.80
2022-08-03T06:43:37.470Z,10.82
2022-08-03T06:46:05.410Z,4.68
2022-08-03T06:48:32.002Z,9.48
2022-08-03T06:50:59.169Z,11.57
2022-08-03T06:53:25.652Z,10.48
2022-08-03T06:55:54.940Z,5.93
2022-08-03T06:58:22.291Z,8.73
2022-08-03T07:00:48.783Z,6.65
2022-08-03T07:03:16.085Z,10.30
2022-08-03T07:05:43.529Z,9.87
2022-08-03T07:08:10.099Z,10.20
2022-08-03T07:10:37.120Z,8.73
2022-08-03T07:13:04.456Z,8.32
2022-08-03T07:15:54.560Z,5.40
2022-08-03T07:18:17.618Z,6.53
2022-08-03T07:20:54.783Z,7.05
2022-08-03T07:23:21.259Z,5.47
2022-08-03T07:25:47.739Z,8.93
2022-08-03T07:28:14.341Z,4.50
2022-08-03T07:30:40.874Z,6.97
2022-08-03T07:33:07.432Z,6.88
2022-08-03T07:35:33.972Z,7.90
2022-08-03T07:38:00.549Z,4.70
2022-08-03T07:40:31.488Z,8.75
2022-08-03T07:42:58.350Z,9.13
2022-08-03T07:45:26.414Z,8.52
2022-08-03T07:47:53.580Z,9.63
2022-08-03T07:50:21.002Z,9.52
2022-08-03T07:52:51.681Z,7.60
2022-08-03T07:55:20.551Z,7.65
2022-08-03T07:57:48.066Z,13.23
2022-08-03T08:00:17.457Z,4.43
2022-08-03T08:02:44.547Z,9.30
2022-08-03T08:07:39.892Z,6.75
2022-08-03T08:10:10.564Z,6.75
2022-08-03T08:12:39.262Z,6.65
2022-08-03T08:15:06.933Z,4.57
2022-08-03T08:17:54.711Z,5.35
2022-08-03T08:20:28.310Z,5.45
2022-08-03T08:22:59.121Z,7.43
2022-08-03T08:25:28.249Z,6.45
2022-08-03T08:28:29.547Z,6.43
2022-08-03T08:30:41.379Z,5.57
2022-08-03T08:33:08.749Z,5.07
2022-08-03T08:35:48.877Z,3.22
2022-08-03T08:38:15.326Z,7.32
2022-08-03T08:40:41.784Z,6.68
2022-08-03T08:43:08.281Z,8.63
2022-08-03T08:45:35.071Z,6.95
2022-08-03T08:48:07.871Z,5.50
2022-08-03T08:50:37.475Z,7.38
2022-08-03T08:53:07.041Z,4.53
2022-08-03T08:55:59.251Z,8.13
2022-08-03T08:58:24.471Z,3.85
2022-08-03T09:00:51.555Z,5.68
2022-08-03T09:03:29.169Z,7.00
2022-08-03T09:05:58.995Z,13.00
2022-08-03T09:08:25.978Z,6.80
2022-08-03T09:10:52.517Z,7.63
2022-08-03T09:13:19.458Z,10.70
2022-08-03T09:15:57.274Z,4.88
2022-08-03T09:18:32.536Z,5.97
2022-08-03T09:21:38.301Z,6.22
2022-08-03T09:24:13.025Z,8.70
2022-08-03T09:26:53.765Z,4.28
2022-08-03T09:29:21.713Z,10.18
2022-08-03T09:31:48.297Z,10.45
2022-08-03T09:34:17.510Z,7.47
2022-08-03T09:36:49.113Z,8.52
2022-08-03T09:39:40.823Z,8.85
2022-08-03T09:42:23.942Z,5.47
2022-08-03T09:44:52.226Z,6.80
2022-08-03T09:50:02.141Z,9.32
2022-08-03T09:52:49.641Z,7.78
2022-08-03T09:56:30.666Z,9.65
2022-08-03T09:58:09.446Z,5.30
2022-08-03T10:00:54.784Z,7.93
2022-08-03T10:03:22.256Z,5.53
2022-08-03T10:05:48.721Z,7.50
2022-08-03T10:08:17.051Z,11.02
2022-08-03T10:10:45.502Z,7.32
2022-08-03T10:13:14.151Z,10.90
2022-08-03T10:16:23.662Z,7.45
2022-08-03T10:18:27.701Z,11.32
2022-08-03T10:20:58.954Z,8.68
2022-08-03T10:23:25.670Z,5.10
2022-08-03T10:25:57.876Z,8.77
2022-08-03T10:28:24.916Z,6.80
2022-08-03T10:30:54.976Z,8.10
2022-08-03T10:33:49.814Z,8.50
2022-08-03T10:36:14.258Z,14.55
2022-08-03T10:38:47.772Z,4.53
2022-08-03T10:41:16.735Z,9.40
2022-08-03T10:43:52.923Z,8.50
2022-08-03T10:46:21.237Z,8.40
2022-08-03T10:48:50.582Z,9.93
2022-08-03T10:51:17.362Z,9.18
2022-08-03T10:53:51.504Z,8.75
2022-08-03T10:56:53.549Z,4.82
2022-08-03T10:59:46.137Z,6.15
2022-08-03T11:02:15.855Z,6.40
2022-08-03T11:04:42.821Z,6.68
2022-08-03T11:07:18.724Z,9.88
2022-08-03T11:09:48.637Z,7.93
2022-08-03T11:12:32.797Z,10.07
2022-08-03T11:15:02.779Z,9.60
2022-08-03T11:17:29.641Z,12.57
2022-08-03T11:19:57.494Z,7.15
2022-08-03T11:22:25.357Z,5.75
2022-08-03T11:24:54.055Z,11.00
2022-08-03T11:27:25.059Z,8.30
2022-08-03T11:30:11.092Z,9.05
2022-08-03T11:32:37.527Z,7.50
2022-08-03T11:35:09.038Z,6.50
2022-08-03T11:37:36.319Z,11.60
2022-08-03T11:40:03.797Z,9.15
2022-08-03T11:42:33.225Z,8.00
2022-08-03T11:45:00.819Z,6.68
2022-08-03T11:47:29.541Z,8.13
2022-08-03T11:50:00.099Z,10.93
2022-08-03T11:52:28.831Z,13.95
2022-08-03T11:54:56.701Z,12.93
2022-08-03T11:58:58.163Z,22.35
2022-08-03T12:03:13.660Z,16.30
2022-08-03T12:08:27.863Z,16.35
2022-08-03T12:10:56.312Z,15.23
2022-08-03T12:14:27.419Z,16.08
2022-08-03T12:16:10.683Z,8.45
2022-08-03T12:18:37.524Z,15.03
2022-08-03T12:21:10.335Z,12.40
2022-08-03T12:23:38.472Z,14.35
2022-08-03T12:26:10.129Z,20.30
2022-08-03T12:28:38.416Z,15.15
2022-08-03T12:31:11.805Z,17.17
2022-08-03T12:34:07.931Z,19.65
2022-08-03T12:36:35.667Z,9.10
2022-08-03T12:39:05.778Z,16.65
2022-08-03T12:41:35.314Z,13.40
2022-08-03T12:44:03.639Z,14.10
2022-08-03T12:46:46.970Z,13.45
2022-08-03T12:49:17.133Z,19.58
2022-08-03T12:51:43.613Z,16.77
2022-08-03T12:54:17.468Z,20.20
2022-08-03T12:57:03.767Z,14.85
2022-08-03T12:59:53.788Z,20.35
2022-08-03T13:02:26.284Z,17.58
2022-08-03T13:04:54.859Z,14.30
2022-08-03T13:07:22.307Z,16.58
2022-08-03T13:09:51.286Z,16.48
2022-08-03T13:12:20.961Z,14.40
2022-08-03T13:14:50.054Z,13.55
2022-08-03T13:17:17.015Z,15.00
2022-08-03T13:19:43.790Z,16.80
2022-08-03T13:22:22.075Z,15.10
2022-08-03T13:24:52.803Z,21.02
2022-08-03T13:28:09.863Z,19.73
2022-08-03T13:30:07.719Z,21.80
2022-08-03T13:32:34.562Z,15.50
2022-08-03T13:35:02.749Z,11.13
2022-08-03T13:37:32.356Z,15.40
2022-08-03T13:40:02.953Z,13.05
2022-08-03T13:42:32.419Z,16.73
2022-08-03T13:47:26.808Z,15.98
2022-08-03T13:49:56.945Z,16.38
2022-08-03T13:52:29.319Z,14.07
2022-08-03T13:54:55.768Z,17.75
2022-08-03T13:58:06.505Z,11.40
2022-08-03T14:00:09.612Z,14.98
2022-08-03T14:02:37.936Z,19.67
2022-08-03T14:05:04.772Z,10.65
2022-08-03T14:07:31.284Z,20.02
2022-08-03T14:09:57.789Z,10.80
2022-08-03T14:12:24.256Z,14.13
2022-08-03T14:14:50.726Z,12.10
2022-08-03T14:17:17.281Z,13.20
2022-08-03T14:19:53.490Z,14.55
2022-08-03T14:22:21.102Z,15.73
2022-08-03T14:24:47.712Z,10.48
2022-08-03T14:27:16.425Z,13.55
2022-08-03T14:29:43.055Z,11.53
2022-08-03T14:32:13.151Z,11.45
2022-08-03T14:34:40.925Z,12.77
2022-08-03T14:37:07.710Z,13.10
2022-08-03T14:42:21.455Z,13.52
2022-08-03T14:44:48.003Z,11.88
2022-08-03T14:47:14.814Z,9.35
2022-08-03T14:50:32.631Z,8.93
2022-08-03T14:52:28.217Z,11.88
2022-08-03T14:54:54.748Z,10.50
2022-08-03T14:57:21.487Z,12.80
2022-08-03T14:59:55.627Z,14.18
2022-08-03T15:02:25.055Z,11.30
2022-08-03T15:04:52.503Z,11.18
2022-08-03T15:07:20.345Z,10.07
2022-08-03T15:09:47.226Z,7.15
2022-08-03T15:12:13.937Z,15.63
2022-08-03T15:14:40.449Z,9.15
2022-08-03T15:17:07.527Z,8.02
2022-08-03T15:20:02.293Z,8.43
2022-08-03T15:22:24.779Z,14.40
2022-08-03T15:24:51.687Z,13.25
2022-08-03T15:27:18.323Z,21.80
2022-08-03T15:30:06.029Z,12.93
2022-08-03T15:32:31.453Z,11.35
2022-08-03T15:34:58.011Z,12.48
2022-08-03T15:37:25.795Z,9.65
2022-08-03T15:39:59.805Z,11.07
2022-08-03T15:42:27.044Z,12.05
2022-08-03T15:44:54.470Z,7.50
2022-08-03T15:47:21.519Z,8.05
2022-08-03T15:49:48.230Z,12.55
2022-08-03T15:52:14.671Z,8.93
2022-08-03T15:54:41.290Z,9.63
2022-08-03T15:57:07.824Z,9.73
2022-08-03T15:59:34.382Z,9.13
2022-08-03T16:02:00.956Z,12.65
2022-08-03T16:04:27.543Z,7.10
2022-08-03T16:06:54.058Z,7.32
2022-08-03T16:09:23.899Z,10.63
2022-08-03T16:12:14.509Z,5.93
2022-08-03T16:14:51.955Z,5.05
2022-08-03T16:17:20.417Z,4.75
2022-08-03T16:19:47.162Z,7.43
2022-08-03T16:22:14.351Z,8.65
2022-08-03T16:24:41.241Z,9.48
2022-08-03T16:27:22.372Z,8.68
2022-08-03T16:29:54.306Z,8.45
2022-08-03T16:32:20.867Z,12.02
2022-08-03T16:34:48.166Z,7.10
2022-08-03T16:37:37.533Z,9.75
2022-08-03T16:40:02.596Z,5.82
2022-08-03T16:42:29.579Z,7.93
2022-08-03T16:44:56.040Z,5.57
2022-08-03T16:47:23.024Z,12.88
2022-08-03T16:49:54.965Z,4.80
2022-08-03T16:52:23.670Z,12.55
2022-08-03T16:54:52.877Z,8.07
2022-08-03T16:57:55.773Z,11.38
2022-08-03T17:00:10.356Z,7.85
2022-08-03T17:02:37.781Z,6.47
2022-08-03T17:05:04.802Z,5.75
2022-08-03T17:07:31.281Z,9.40
2022-08-03T17:09:58.047Z,7.03
2022-08-03T17:12:26.935Z,11.35
2022-08-03T17:14:54.253Z,9.50
2022-08-03T17:17:30.101Z,6.50
2022-08-03T17:20:11.687Z,10.50
2022-08-03T17:23:06.687Z,8.82
2022-08-03T17:26:02.406Z,12.65
2022-08-03T17:28:48.180Z,8.60
2022-08-03T17:31:23.554Z,8.73
2022-08-03T17:34:00.697Z,12.52
2022-08-03T17:36:47.685Z,9.20
2022-08-03T17:39:30.933Z,10.27
2022-08-03T17:42:31.163Z,6.90
2022-08-03T17:44:55.254Z,9.25
2022-08-03T17:47:22.927Z,10.77
2022-08-03T17:49:56.856Z,13.77
2022-08-03T17:52:48.370Z,13.52
2022-08-03T17:55:56.823Z,10.35
2022-08-03T17:58:25.533Z,10.45
2022-08-03T18:01:56.948Z,9.05
2022-08-03T18:04:10.627Z,10.38
2022-08-03T18:06:55.641Z,12.18
2022-08-03T18:10:04.729Z,7.32
2022-08-03T18:12:24.298Z,11.07
2022-08-03T18:15:01.213Z,13.23
2022-08-03T18:17:55.428Z,6.85
2022-08-03T18:20:32.145Z,9.15
2022-08-03T18:23:04.781Z,6.78
2022-08-03T18:25:42.297Z,14.63
2022-08-03T18:28:16.587Z,14.27
2022-08-03T18:30:54.010Z,12.07
2022-08-03T18:34:20.036Z,10.25
2022-08-03T18:36:18.061Z,12.00
2022-08-03T18:38:50.955Z,11.95
2022-08-03T18:41:31.817Z,12.80
2022-08-03T18:44:07.901Z,14.80
2022-08-03T18:46:50.309Z,12.55
2022-08-03T18:49:45.670Z,12.30
2022-08-03T18:52:26.879Z,11.90
2022-08-03T18:55:14.069Z,15.10
2022-08-03T18:57:55.434Z,13.13
2022-08-03T19:00:42.700Z,12.55
2022-08-03T19:03:20.446Z,9.80
2022-08-03T19:06:05.948Z,9.00
2022-08-03T19:08:47.851Z,15.80
2022-08-03T19:11:28.259Z,12.73
2022-08-03T19:13:59.186Z,15.52
2022-08-03T19:16:35.822Z,14.20
2022-08-03T19:19:10.338Z,12.52
2022-08-03T19:21:41.189Z,16.40
2022-08-03T19:24:09.910Z,26.90
2022-08-03T19:26:39.560Z,13.55
2022-08-03T19:29:10.838Z,14.27
2022-08-03T19:31:58.771Z,17.67
2022-08-03T19:34:29.191Z,11.20
2022-08-03T19:36:58.508Z,12.63
2022-08-03T19:39:25.741Z,20.65
2022-08-03T19:42:07.962Z,17.40
2022-08-03T19:44:42.845Z,15.10
2022-08-03T19:47:20.063Z,16.83
2022-08-03T19:50:10.313Z,16.80
2022-08-03T19:52:39.442Z,16.08
2022-08-03T19:55:12.362Z,14.70
2022-08-03T19:57:42.228Z,13.85
2022-08-03T20:00:12.469Z,16.02
2022-08-03T20:02:41.466Z,15.00
2022-08-03T20:05:15.120Z,22.40
2022-08-03T20:07:47.808Z,13.70
2022-08-03T20:10:16.119Z,14.38
2022-08-03T20:12:44.106Z,20.85
2022-08-03T20:15:11.152Z,19.67
2022-08-03T20:17:56.418Z,21.85
2022-08-03T20:20:28.699Z,15.70
2022-08-03T20:22:57.936Z,15.88
2022-08-03T20:25:38.349Z,18.95
2022-08-03T20:28:15.068Z,20.70
2022-08-03T20:30:43.751Z,26.85
2022-08-03T20:33:10.529Z,22.98
2022-08-03T20:35:37.147Z,20.13
2022-08-03T20:38:03.739Z,15.50
2022-08-03T20:40:30.253Z,15.88
2022-08-03T20:42:56.875Z,19.83
2022-08-03T20:45:58.512Z,18.17
2022-08-03T20:48:10.575Z,21.05
2022-08-03T20:50:40.888Z,18.13
2022-08-03T20:53:12.021Z,18.00
2022-08-03T20:55:47.608Z,15.98
2022-08-03T20:58:25.699Z,13.43
2022-08-03T21:00:54.345Z,18.63
2022-08-03T21:05:51.841Z,26.23
2022-08-03T21:08:22.501Z,19.55
2022-08-03T21:10:52.617Z,21.00
2022-08-03T21:13:29.172Z,18.70
2022-08-03T21:16:13.101Z,23.05
2022-08-03T21:18:52.755Z,20.17
2022-08-03T21:21:22.311Z,15.77
2022-08-03T21:23:53.693Z,15.43
2022-08-03T21:26:22.913Z,18.55
2022-08-03T21:28:51.431Z,13.07
2022-08-03T21:31:25.203Z,16.60
2022-08-03T21:34:04.327Z,14.23
2022-08-03T21:36:34.915Z,13.05
2022-08-03T21:39:03.273Z,25.00
2022-08-03T21:41:31.904Z,16.20
2022-08-03T21:43:59.668Z,19.67
2022-08-03T21:46:28.853Z,20.33
2022-08-03T21:50:05.315Z,15.27
2022-08-03T21:51:49.373Z,17.27
2022-08-03T21:54:17.723Z,15.27
2022-08-03T21:56:48.023Z,16.30
2022-08-03T21:59:19.652Z,15.95
2022-08-03T22:01:48.834Z,15.77
2022-08-03T22:04:50.387Z,15.73
2022-08-03T22:07:07.735Z,12.82
2022-08-03T22:09:35.519Z,14.18
2022-08-03T22:12:02.084Z,15.98
2022-08-03T22:14:29.790Z,16.13
2022-08-03T22:16:56.598Z,12.20
2022-08-03T22:19:23.127Z,15.05
2022-08-03T22:21:50.055Z,13.88
2022-08-03T22:24:19.700Z,13.32
2022-08-03T22:27:09.802Z,12.82
2022-08-03T22:29:38.328Z,15.30
2022-08-03T22:32:04.962Z,13.63
2022-08-03T22:34:31.584Z,18.08
2022-08-03T22:37:04.960Z,18.38
2022-08-03T22:39:32.154Z,14.57
2022-08-03T22:41:59.278Z,17.10
2022-08-03T22:44:27.491Z,18.08
2022-08-03T22:49:20.949Z,16.25
2022-08-03T22:51:48.364Z,18.98
2022-08-03T22:54:16.137Z,15.73
2022-08-03T22:56:43.379Z,16.45
2022-08-03T22:59:41.162Z,15.93
2022-08-03T23:02:01.898Z,20.02
2022-08-03T23:04:44.211Z,20.55
2022-08-03T23:07:15.073Z,18.65
2022-08-03T23:09:44.615Z,19.60
2022-08-03T23:12:15.215Z,15.63
2022-08-03T23:14:44.272Z,17.85
2022-08-03T23:17:11.966Z,13.68
2022-08-03T23:19:44.615Z,16.00
2022-08-03T23:22:29.390Z,15.35
2022-08-03T23:24:58.780Z,14.68
2022-08-03T23:29:54.210Z,14.80
2022-08-03T23:32:21.081Z,14.80
2022-08-03T23:35:07.680Z,14.52
2022-08-03T23:37:34.904Z,15.10
2022-08-03T23:40:24.727Z,11.80
2022-08-03T23:42:51.926Z,17.27
2022-08-03T23:45:20.767Z,14.18
2022-08-03T23:47:48.362Z,17.08
2022-08-03T23:50:15.170Z,13.80
2022-08-03T23:52:47.602Z,15.82
2022-08-03T23:55:17.210Z,14.45
2022-08-03T23:58:04.952Z,15.57
